BAW8TD EGLL-EKCH
Flight info
| Callsign | BAW8TD |
|---|---|
| Flight time | 1h 24m |
| Altitude | 37000 |
| Route | DCT BPK Q295 SOMVA DCT MAVAS DCT ANDIK DCT BEDUM DCT DOSUR P729 TUDLO DCT |
| Aircraft | A320/M-SDE3FGIJ1KRWXY/SB1 |
Departure
| Time | 2026-04-26 13:18 |
|---|---|
| Airport | London Heathrow Airport (EGLL) |
Arrival
| Time | 2026-04-26 14:42 |
|---|---|
| Airport | Copenhagen Kastrup Airport (EKCH) |
| Time | Latitude | Longitude | Altitude | Speed | Heading |
|---|---|---|---|---|---|
| 2026-04-26 12:46 | 51.47087 | -0.48584 | 90 ft | 0 kts | 269° |
| 2026-04-26 13:10 | 51.47087 | -0.48583 | 86 ft | 0 kts | 269° |
| 2026-04-26 13:11 | 51.47087 | -0.48555 | 86 ft | 4 kts | 269° |
| 2026-04-26 13:11 | 51.47087 | -0.48520 | 86 ft | 4 kts | 268° |
| 2026-04-26 13:11 | 51.47094 | -0.48483 | 88 ft | 4 kts | 219° |
| 2026-04-26 13:12 | 51.47115 | -0.48472 | 89 ft | 4 kts | 180° |
| 2026-04-26 13:12 | 51.47127 | -0.48472 | 88 ft | 1 kts | 180° |
| 2026-04-26 13:13 | 51.47128 | -0.48472 | 88 ft | 0 kts | 180° |
| 2026-04-26 13:14 | 51.47127 | -0.48472 | 88 ft | 1 kts | 180° |
| 2026-04-26 13:14 | 51.47113 | -0.48472 | 89 ft | 5 kts | 179° |
| 2026-04-26 13:14 | 51.47070 | -0.48471 | 87 ft | 7 kts | 179° |
| 2026-04-26 13:15 | 51.47011 | -0.48471 | 88 ft | 10 kts | 179° |
| 2026-04-26 13:15 | 51.46937 | -0.48470 | 88 ft | 11 kts | 179° |
| 2026-04-26 13:15 | 51.46850 | -0.48469 | 86 ft | 14 kts | 179° |
| 2026-04-26 13:15 | 51.46753 | -0.48468 | 86 ft | 13 kts | 179° |
| 2026-04-26 13:16 | 51.46657 | -0.48466 | 86 ft | 15 kts | 179° |
| 2026-04-26 13:16 | 51.46562 | -0.48465 | 86 ft | 13 kts | 179° |
| 2026-04-26 13:16 | 51.46491 | -0.48456 | 88 ft | 8 kts | 155° |
| 2026-04-26 13:16 | 51.46479 | -0.48390 | 89 ft | 0 kts | 89° |
| 2026-04-26 13:17 | 51.46479 | -0.48354 | 87 ft | 12 kts | 89° |
| 2026-04-26 13:17 | 51.46482 | -0.47912 | 87 ft | 73 kts | 90° |
| 2026-04-26 13:18 | 51.46492 | -0.45142 | 141 ft | 162 kts | 89° |
| 2026-04-26 13:18 | 51.46515 | -0.43361 | 826 ft | 159 kts | 89° |
| 2026-04-26 13:18 | 51.47281 | -0.39914 | 1760 ft | 187 kts | 53° |
| 2026-04-26 13:19 | 51.48148 | -0.38223 | 2017 ft | 210 kts | 52° |
| 2026-04-26 13:19 | 51.49139 | -0.36307 | 2371 ft | 231 kts | 53° |
| 2026-04-26 13:19 | 51.50207 | -0.34251 | 2850 ft | 253 kts | 52° |
| 2026-04-26 13:19 | 51.51354 | -0.32056 | 3739 ft | 259 kts | 51° |
| 2026-04-26 13:20 | 51.52372 | -0.29627 | 4632 ft | 263 kts | 70° |
| 2026-04-26 13:20 | 51.52994 | -0.26836 | 5487 ft | 268 kts | 72° |
| 2026-04-26 13:20 | 51.53638 | -0.24019 | 6267 ft | 271 kts | 64° |
| 2026-04-26 13:20 | 51.54747 | -0.21547 | 7063 ft | 278 kts | 43° |
| 2026-04-26 13:21 | 51.56373 | -0.19835 | 7833 ft | 283 kts | 21° |
| 2026-04-26 13:21 | 51.57603 | -0.19128 | 8389 ft | 285 kts | 19° |
| 2026-04-26 13:21 | 51.60128 | -0.17688 | 9471 ft | 290 kts | 16° |
| 2026-04-26 13:21 | 51.62074 | -0.16720 | 10292 ft | 295 kts | 16° |
| 2026-04-26 13:22 | 51.64082 | -0.15742 | 10786 ft | 311 kts | 15° |
| 2026-04-26 13:22 | 51.66239 | -0.14717 | 11014 ft | 334 kts | 15° |
| 2026-04-26 13:22 | 51.68523 | -0.13652 | 11412 ft | 347 kts | 15° |
| 2026-04-26 13:22 | 51.70804 | -0.12262 | 12026 ft | 354 kts | 27° |
| 2026-04-26 13:23 | 51.72758 | -0.10061 | 12648 ft | 359 kts | 42° |
| 2026-04-26 13:23 | 51.74379 | -0.06982 | 13284 ft | 364 kts | 57° |
| 2026-04-26 13:23 | 51.75461 | -0.03277 | 13912 ft | 368 kts | 73° |
| 2026-04-26 13:23 | 51.75943 | 0.00790 | 14484 ft | 371 kts | 83° |
| 2026-04-26 13:24 | 51.76280 | 0.04942 | 15067 ft | 375 kts | 83° |
| 2026-04-26 13:24 | 51.76621 | 0.09130 | 15644 ft | 378 kts | 83° |
| 2026-04-26 13:24 | 51.76967 | 0.13365 | 16226 ft | 381 kts | 83° |
| 2026-04-26 13:24 | 51.77318 | 0.17629 | 16791 ft | 384 kts | 83° |
| 2026-04-26 13:25 | 51.77672 | 0.21922 | 17360 ft | 388 kts | 83° |
| 2026-04-26 13:25 | 51.78026 | 0.26250 | 17931 ft | 391 kts | 83° |
| 2026-04-26 13:25 | 51.78380 | 0.30618 | 18499 ft | 394 kts | 83° |
| 2026-04-26 13:25 | 51.78738 | 0.35026 | 19006 ft | 398 kts | 83° |
| 2026-04-26 13:26 | 51.79096 | 0.39477 | 19507 ft | 401 kts | 83° |
| 2026-04-26 13:26 | 51.79453 | 0.43959 | 20005 ft | 404 kts | 83° |
| 2026-04-26 13:26 | 51.79809 | 0.48475 | 20502 ft | 408 kts | 83° |
| 2026-04-26 13:26 | 51.80166 | 0.53048 | 20959 ft | 411 kts | 83° |
| 2026-04-26 13:27 | 51.80523 | 0.57648 | 21442 ft | 414 kts | 83° |
| 2026-04-26 13:27 | 51.80895 | 0.62281 | 21919 ft | 417 kts | 80° |
| 2026-04-26 13:27 | 51.81589 | 0.66839 | 22369 ft | 419 kts | 70° |
| 2026-04-26 13:27 | 51.82680 | 0.71222 | 22813 ft | 422 kts | 66° |
| 2026-04-26 13:28 | 51.83828 | 0.75598 | 23275 ft | 424 kts | 66° |
| 2026-04-26 13:28 | 51.84976 | 0.80013 | 23742 ft | 427 kts | 66° |
| 2026-04-26 13:28 | 51.86125 | 0.84463 | 24149 ft | 430 kts | 66° |
| 2026-04-26 13:28 | 51.87277 | 0.88948 | 24508 ft | 433 kts | 66° |
| 2026-04-26 13:29 | 51.88435 | 0.93463 | 24878 ft | 436 kts | 66° |
| 2026-04-26 13:29 | 51.89220 | 0.96523 | 25109 ft | 438 kts | 66° |
| 2026-04-26 13:29 | 51.90788 | 1.02641 | 25577 ft | 442 kts | 66° |
| 2026-04-26 13:29 | 51.91969 | 1.07255 | 25915 ft | 445 kts | 66° |
| 2026-04-26 13:30 | 51.93157 | 1.11901 | 26253 ft | 448 kts | 66° |
| 2026-04-26 13:30 | 51.94349 | 1.16577 | 26594 ft | 450 kts | 66° |
| 2026-04-26 13:30 | 51.95547 | 1.21287 | 26925 ft | 453 kts | 66° |
| 2026-04-26 13:30 | 51.96749 | 1.26025 | 27270 ft | 456 kts | 66° |
| 2026-04-26 13:31 | 51.97955 | 1.30795 | 27614 ft | 459 kts | 66° |
| 2026-04-26 13:31 | 51.99166 | 1.35594 | 27956 ft | 461 kts | 66° |
| 2026-04-26 13:31 | 52.00385 | 1.40430 | 28297 ft | 464 kts | 66° |
| 2026-04-26 13:31 | 52.01607 | 1.45293 | 28640 ft | 467 kts | 66° |
| 2026-04-26 13:32 | 52.02837 | 1.50189 | 28981 ft | 469 kts | 65° |
| 2026-04-26 13:32 | 52.04070 | 1.55114 | 29317 ft | 472 kts | 65° |
| 2026-04-26 13:32 | 52.05304 | 1.60065 | 29667 ft | 474 kts | 65° |
| 2026-04-26 13:32 | 52.06537 | 1.65027 | 30131 ft | 473 kts | 65° |
| 2026-04-26 13:33 | 52.07767 | 1.69983 | 30568 ft | 473 kts | 65° |
| 2026-04-26 13:33 | 52.08995 | 1.74937 | 30961 ft | 472 kts | 65° |
| 2026-04-26 13:33 | 52.10220 | 1.79888 | 31362 ft | 472 kts | 65° |
| 2026-04-26 13:33 | 52.11442 | 1.84832 | 31770 ft | 471 kts | 65° |
| 2026-04-26 13:34 | 52.12664 | 1.89776 | 32166 ft | 470 kts | 65° |
| 2026-04-26 13:34 | 52.13880 | 1.94712 | 32587 ft | 470 kts | 65° |
| 2026-04-26 13:34 | 52.15093 | 1.99649 | 33020 ft | 469 kts | 65° |
| 2026-04-26 13:34 | 52.15499 | 2.01310 | 33173 ft | 468 kts | 65° |
| 2026-04-26 13:35 | 52.17107 | 2.07889 | 33791 ft | 467 kts | 65° |
| 2026-04-26 13:35 | 52.18307 | 2.12805 | 34200 ft | 466 kts | 65° |
| 2026-04-26 13:35 | 52.19501 | 2.17706 | 34566 ft | 465 kts | 65° |
| 2026-04-26 13:35 | 52.20690 | 2.22601 | 34912 ft | 464 kts | 65° |
| 2026-04-26 13:36 | 52.21875 | 2.27496 | 35253 ft | 463 kts | 65° |
| 2026-04-26 13:36 | 52.23054 | 2.32382 | 35591 ft | 463 kts | 65° |
| 2026-04-26 13:36 | 52.24226 | 2.37255 | 35921 ft | 462 kts | 65° |
| 2026-04-26 13:36 | 52.25398 | 2.42132 | 36242 ft | 461 kts | 65° |
| 2026-04-26 13:37 | 52.26565 | 2.46989 | 36583 ft | 460 kts | 65° |
| 2026-04-26 13:37 | 52.27731 | 2.51846 | 36916 ft | 458 kts | 65° |
| 2026-04-26 13:37 | 52.28888 | 2.56687 | 37236 ft | 457 kts | 65° |
| 2026-04-26 13:37 | 52.30043 | 2.61528 | 37347 ft | 459 kts | 65° |
| 2026-04-26 13:38 | 52.31106 | 2.66489 | 37357 ft | 466 kts | 71° |
| 2026-04-26 13:38 | 52.32906 | 2.76698 | 37356 ft | 469 kts | 71° |
| 2026-04-26 13:39 | 52.34698 | 2.86951 | 37361 ft | 469 kts | 71° |
| 2026-04-26 13:39 | 52.36493 | 2.97229 | 37361 ft | 469 kts | 71° |
| 2026-04-26 13:40 | 52.38279 | 3.07487 | 37369 ft | 468 kts | 71° |
| 2026-04-26 13:40 | 52.40051 | 3.17741 | 37379 ft | 468 kts | 71° |
| 2026-04-26 13:41 | 52.41812 | 3.28006 | 37384 ft | 468 kts | 71° |
| 2026-04-26 13:41 | 52.43566 | 3.38288 | 37383 ft | 469 kts | 71° |
| 2026-04-26 13:42 | 52.45307 | 3.48581 | 37394 ft | 468 kts | 71° |
| 2026-04-26 13:42 | 52.47043 | 3.58874 | 37407 ft | 468 kts | 71° |
| 2026-04-26 13:43 | 52.48773 | 3.69158 | 37393 ft | 468 kts | 71° |
| 2026-04-26 13:43 | 52.50498 | 3.79522 | 37383 ft | 468 kts | 71° |
| 2026-04-26 13:44 | 52.52203 | 3.89827 | 37381 ft | 467 kts | 72° |
| 2026-04-26 13:44 | 52.53898 | 4.00131 | 37381 ft | 467 kts | 72° |
| 2026-04-26 13:45 | 52.55577 | 4.10442 | 37383 ft | 467 kts | 72° |
| 2026-04-26 13:45 | 52.57255 | 4.20755 | 37376 ft | 467 kts | 72° |
| 2026-04-26 13:46 | 52.58924 | 4.31085 | 37373 ft | 467 kts | 72° |
| 2026-04-26 13:46 | 52.60575 | 4.41392 | 37374 ft | 467 kts | 72° |
| 2026-04-26 13:47 | 52.62226 | 4.51721 | 37370 ft | 467 kts | 72° |
| 2026-04-26 13:47 | 52.63872 | 4.62041 | 37369 ft | 467 kts | 72° |
| 2026-04-26 13:48 | 52.65507 | 4.72396 | 37366 ft | 467 kts | 72° |
| 2026-04-26 13:48 | 52.67125 | 4.82752 | 37387 ft | 467 kts | 72° |
| 2026-04-26 13:49 | 52.68734 | 4.93122 | 37378 ft | 467 kts | 72° |
| 2026-04-26 13:49 | 52.70341 | 5.03502 | 37384 ft | 467 kts | 72° |
| 2026-04-26 13:50 | 52.71944 | 5.13902 | 37378 ft | 468 kts | 72° |
| 2026-04-26 13:50 | 52.73709 | 5.24193 | 37376 ft | 464 kts | 64° |
| 2026-04-26 13:51 | 52.76891 | 5.33283 | 37372 ft | 454 kts | 47° |
| 2026-04-26 13:51 | 52.80788 | 5.41503 | 37367 ft | 454 kts | 48° |
| 2026-04-26 13:52 | 52.84666 | 5.49756 | 37369 ft | 454 kts | 48° |
| 2026-04-26 13:52 | 52.88540 | 5.58026 | 37396 ft | 455 kts | 48° |
| 2026-04-26 13:53 | 52.92441 | 5.66376 | 37384 ft | 455 kts | 48° |
| 2026-04-26 13:53 | 52.96315 | 5.74692 | 37380 ft | 455 kts | 48° |
| 2026-04-26 13:54 | 53.00152 | 5.82973 | 37381 ft | 456 kts | 48° |
| 2026-04-26 13:54 | 53.04034 | 5.91372 | 37383 ft | 456 kts | 48° |
| 2026-04-26 13:55 | 53.09176 | 6.02512 | 37382 ft | 456 kts | 48° |
| 2026-04-26 13:56 | 53.15612 | 6.16518 | 37387 ft | 457 kts | 49° |
| 2026-04-26 13:56 | 53.19456 | 6.24959 | 37381 ft | 457 kts | 49° |
| 2026-04-26 13:57 | 53.23295 | 6.33416 | 37376 ft | 458 kts | 49° |
| 2026-04-26 13:57 | 53.27134 | 6.41881 | 37369 ft | 458 kts | 49° |
| 2026-04-26 13:58 | 53.30977 | 6.50382 | 37377 ft | 458 kts | 49° |
| 2026-04-26 13:58 | 53.34858 | 6.58830 | 37370 ft | 455 kts | 44° |
| 2026-04-26 13:59 | 53.39319 | 6.66286 | 37374 ft | 453 kts | 40° |
| 2026-04-26 13:59 | 53.43824 | 6.73655 | 37378 ft | 453 kts | 40° |
| 2026-04-26 14:00 | 53.52861 | 6.88541 | 37369 ft | 454 kts | 41° |
| 2026-04-26 14:01 | 53.57332 | 6.95963 | 37389 ft | 455 kts | 40° |
| 2026-04-26 14:01 | 53.61868 | 7.03485 | 37385 ft | 455 kts | 41° |
| 2026-04-26 14:02 | 53.66369 | 7.10984 | 37380 ft | 455 kts | 41° |
| 2026-04-26 14:02 | 53.70860 | 7.18499 | 37376 ft | 455 kts | 41° |
| 2026-04-26 14:03 | 53.75351 | 7.26032 | 37378 ft | 455 kts | 41° |
| 2026-04-26 14:03 | 53.79841 | 7.33574 | 37398 ft | 455 kts | 41° |
| 2026-04-26 14:04 | 53.84274 | 7.41237 | 37379 ft | 458 kts | 46° |
| 2026-04-26 14:04 | 53.88310 | 7.49618 | 37373 ft | 460 kts | 48° |
| 2026-04-26 14:05 | 53.92278 | 7.58127 | 37376 ft | 460 kts | 48° |
| 2026-04-26 14:05 | 53.96244 | 7.66666 | 37378 ft | 461 kts | 48° |
| 2026-04-26 14:06 | 54.00220 | 7.75199 | 37400 ft | 461 kts | 48° |
| 2026-04-26 14:06 | 54.04200 | 7.83757 | 37389 ft | 461 kts | 48° |
| 2026-04-26 14:07 | 54.08178 | 7.92321 | 37379 ft | 461 kts | 48° |
| 2026-04-26 14:07 | 54.11507 | 7.99507 | 37386 ft | 461 kts | 48° |
| 2026-04-26 14:08 | 54.15475 | 8.08115 | 37375 ft | 462 kts | 48° |
| 2026-04-26 14:08 | 54.19435 | 8.16751 | 37375 ft | 462 kts | 49° |
| 2026-04-26 14:09 | 54.23393 | 8.25407 | 37388 ft | 462 kts | 48° |
| 2026-04-26 14:09 | 54.27347 | 8.34073 | 37377 ft | 462 kts | 49° |
| 2026-04-26 14:10 | 54.31300 | 8.42773 | 37372 ft | 463 kts | 49° |
| 2026-04-26 14:10 | 54.35243 | 8.51492 | 37368 ft | 463 kts | 49° |
| 2026-04-26 14:11 | 54.41148 | 8.64611 | 37367 ft | 463 kts | 49° |
| 2026-04-26 14:11 | 54.45087 | 8.73372 | 37383 ft | 464 kts | 49° |
| 2026-04-26 14:12 | 54.49022 | 8.82163 | 37368 ft | 464 kts | 49° |
| 2026-04-26 14:12 | 54.52947 | 8.90985 | 37357 ft | 464 kts | 49° |
| 2026-04-26 14:13 | 54.58821 | 9.04244 | 37349 ft | 464 kts | 49° |
| 2026-04-26 14:14 | 54.62736 | 9.13108 | 37191 ft | 464 kts | 49° |
| 2026-04-26 14:14 | 54.64690 | 9.17535 | 36926 ft | 464 kts | 49° |
| 2026-04-26 14:14 | 54.66668 | 9.22029 | 36692 ft | 464 kts | 49° |
| 2026-04-26 14:14 | 54.68592 | 9.26416 | 36440 ft | 465 kts | 49° |
| 2026-04-26 14:15 | 54.70567 | 9.30931 | 36191 ft | 465 kts | 49° |
| 2026-04-26 14:15 | 54.72520 | 9.35397 | 35926 ft | 465 kts | 49° |
| 2026-04-26 14:15 | 54.74473 | 9.39869 | 35674 ft | 466 kts | 49° |
| 2026-04-26 14:15 | 54.76424 | 9.44348 | 35427 ft | 466 kts | 49° |
| 2026-04-26 14:16 | 54.78378 | 9.48836 | 35180 ft | 467 kts | 49° |
| 2026-04-26 14:16 | 54.80331 | 9.53327 | 34934 ft | 467 kts | 49° |
| 2026-04-26 14:16 | 54.82285 | 9.57836 | 34687 ft | 468 kts | 49° |
| 2026-04-26 14:16 | 54.84240 | 9.62359 | 34455 ft | 468 kts | 49° |
| 2026-04-26 14:17 | 54.86195 | 9.66889 | 34217 ft | 469 kts | 49° |
| 2026-04-26 14:17 | 54.88146 | 9.71426 | 33959 ft | 469 kts | 49° |
| 2026-04-26 14:17 | 54.90099 | 9.75976 | 33685 ft | 470 kts | 49° |
| 2026-04-26 14:17 | 54.92050 | 9.80525 | 33352 ft | 470 kts | 49° |
| 2026-04-26 14:18 | 54.94014 | 9.85101 | 32365 ft | 476 kts | 49° |
| 2026-04-26 14:18 | 54.95989 | 9.89703 | 31850 ft | 471 kts | 49° |
| 2026-04-26 14:18 | 54.97942 | 9.94267 | 31248 ft | 469 kts | 49° |
| 2026-04-26 14:18 | 54.99880 | 9.98802 | 30651 ft | 466 kts | 49° |
| 2026-04-26 14:19 | 55.01810 | 10.03336 | 30010 ft | 464 kts | 49° |
| 2026-04-26 14:19 | 55.03715 | 10.07835 | 29426 ft | 459 kts | 49° |
| 2026-04-26 14:19 | 55.05596 | 10.12288 | 28832 ft | 454 kts | 49° |
| 2026-04-26 14:19 | 55.07463 | 10.16706 | 28253 ft | 450 kts | 49° |
| 2026-04-26 14:20 | 55.09311 | 10.21078 | 27662 ft | 446 kts | 49° |
| 2026-04-26 14:20 | 55.11143 | 10.25421 | 27107 ft | 443 kts | 49° |
| 2026-04-26 14:20 | 55.12959 | 10.29735 | 26544 ft | 439 kts | 49° |
| 2026-04-26 14:20 | 55.14756 | 10.34014 | 25988 ft | 435 kts | 49° |
| 2026-04-26 14:21 | 55.16539 | 10.38262 | 25452 ft | 431 kts | 49° |
| 2026-04-26 14:21 | 55.18308 | 10.42484 | 24928 ft | 428 kts | 49° |
| 2026-04-26 14:21 | 55.20058 | 10.46671 | 24424 ft | 425 kts | 49° |
| 2026-04-26 14:21 | 55.21793 | 10.50830 | 23928 ft | 422 kts | 49° |
| 2026-04-26 14:22 | 55.23509 | 10.54956 | 23385 ft | 418 kts | 49° |
| 2026-04-26 14:22 | 55.25214 | 10.59069 | 22913 ft | 413 kts | 49° |
| 2026-04-26 14:22 | 55.26841 | 10.63191 | 22434 ft | 412 kts | 55° |
| 2026-04-26 14:22 | 55.28085 | 10.67789 | 21938 ft | 414 kts | 66° |
| 2026-04-26 14:23 | 55.28926 | 10.72550 | 21445 ft | 412 kts | 70° |
| 2026-04-26 14:23 | 55.29755 | 10.77410 | 20934 ft | 409 kts | 69° |
| 2026-04-26 14:23 | 55.30568 | 10.82184 | 20441 ft | 407 kts | 69° |
| 2026-04-26 14:23 | 55.31377 | 10.86944 | 19895 ft | 406 kts | 69° |
| 2026-04-26 14:24 | 55.32179 | 10.91678 | 19360 ft | 404 kts | 69° |
| 2026-04-26 14:24 | 55.32980 | 10.96406 | 18810 ft | 403 kts | 69° |
| 2026-04-26 14:24 | 55.33776 | 11.01111 | 18262 ft | 401 kts | 69° |
| 2026-04-26 14:24 | 55.34559 | 11.05781 | 17741 ft | 397 kts | 69° |
| 2026-04-26 14:25 | 55.35328 | 11.10412 | 17234 ft | 392 kts | 69° |
| 2026-04-26 14:25 | 55.36084 | 11.14987 | 16723 ft | 389 kts | 69° |
| 2026-04-26 14:25 | 55.36833 | 11.19540 | 16213 ft | 386 kts | 69° |
| 2026-04-26 14:25 | 55.37574 | 11.24050 | 15697 ft | 382 kts | 69° |
| 2026-04-26 14:26 | 55.38309 | 11.28527 | 15188 ft | 380 kts | 69° |
| 2026-04-26 14:26 | 55.39039 | 11.32978 | 14684 ft | 377 kts | 69° |
| 2026-04-26 14:26 | 55.39759 | 11.37383 | 14181 ft | 374 kts | 69° |
| 2026-04-26 14:26 | 55.40475 | 11.41782 | 13638 ft | 371 kts | 69° |
| 2026-04-26 14:27 | 55.41178 | 11.46118 | 13141 ft | 367 kts | 69° |
| 2026-04-26 14:27 | 55.41873 | 11.50407 | 12690 ft | 361 kts | 69° |
| 2026-04-26 14:27 | 55.42543 | 11.54579 | 12551 ft | 347 kts | 69° |
| 2026-04-26 14:27 | 55.43187 | 11.58599 | 12419 ft | 335 kts | 69° |
| 2026-04-26 14:28 | 55.43878 | 11.62435 | 12286 ft | 321 kts | 61° |
| 2026-04-26 14:28 | 55.44933 | 11.65766 | 12135 ft | 305 kts | 50° |
| 2026-04-26 14:28 | 55.46128 | 11.68819 | 11854 ft | 301 kts | 50° |
| 2026-04-26 14:28 | 55.47306 | 11.71839 | 11591 ft | 297 kts | 50° |
| 2026-04-26 14:29 | 55.48465 | 11.74823 | 11368 ft | 294 kts | 50° |
| 2026-04-26 14:29 | 55.49611 | 11.77790 | 11111 ft | 292 kts | 50° |
| 2026-04-26 14:29 | 55.50751 | 11.80746 | 10866 ft | 291 kts | 50° |
| 2026-04-26 14:29 | 55.51885 | 11.83686 | 10623 ft | 289 kts | 50° |
| 2026-04-26 14:30 | 55.53011 | 11.86614 | 10371 ft | 287 kts | 50° |
| 2026-04-26 14:30 | 55.54129 | 11.89525 | 10139 ft | 286 kts | 50° |
| 2026-04-26 14:30 | 55.55242 | 11.92430 | 9872 ft | 285 kts | 50° |
| 2026-04-26 14:30 | 55.56364 | 11.95362 | 9622 ft | 284 kts | 50° |
| 2026-04-26 14:31 | 55.57464 | 11.98247 | 9402 ft | 283 kts | 51° |
| 2026-04-26 14:31 | 55.58559 | 12.01135 | 9157 ft | 282 kts | 51° |
| 2026-04-26 14:31 | 55.59649 | 12.04010 | 8899 ft | 281 kts | 51° |
| 2026-04-26 14:31 | 55.60739 | 12.06884 | 8689 ft | 281 kts | 51° |
| 2026-04-26 14:32 | 55.61853 | 12.09719 | 8454 ft | 278 kts | 46° |
| 2026-04-26 14:32 | 55.63208 | 12.12102 | 8203 ft | 273 kts | 36° |
| 2026-04-26 14:32 | 55.64654 | 12.14278 | 7948 ft | 273 kts | 36° |
| 2026-04-26 14:32 | 55.66096 | 12.16451 | 7690 ft | 272 kts | 36° |
| 2026-04-26 14:33 | 55.67499 | 12.18703 | 7429 ft | 274 kts | 46° |
| 2026-04-26 14:33 | 55.68404 | 12.21690 | 7184 ft | 280 kts | 72° |
| 2026-04-26 14:33 | 55.68493 | 12.25136 | 6917 ft | 284 kts | 100° |
| 2026-04-26 14:33 | 55.67727 | 12.28321 | 6633 ft | 283 kts | 127° |
| 2026-04-26 14:34 | 55.66329 | 12.30742 | 6349 ft | 281 kts | 141° |
| 2026-04-26 14:34 | 55.64842 | 12.32979 | 6076 ft | 280 kts | 141° |
| 2026-04-26 14:34 | 55.63358 | 12.35205 | 5800 ft | 279 kts | 141° |
| 2026-04-26 14:34 | 55.61718 | 12.37009 | 5333 ft | 280 kts | 163° |
| 2026-04-26 14:35 | 55.59836 | 12.37501 | 5058 ft | 271 kts | 187° |
| 2026-04-26 14:35 | 55.58054 | 12.36704 | 4837 ft | 261 kts | 209° |
| 2026-04-26 14:35 | 55.56586 | 12.34897 | 4686 ft | 256 kts | 224° |
| 2026-04-26 14:35 | 55.55241 | 12.32840 | 4538 ft | 256 kts | 224° |
| 2026-04-26 14:36 | 55.53903 | 12.30786 | 4412 ft | 255 kts | 223° |
| 2026-04-26 14:36 | 55.52565 | 12.28773 | 4265 ft | 248 kts | 219° |
| 2026-04-26 14:36 | 55.51010 | 12.27789 | 4086 ft | 237 kts | 182° |
| 2026-04-26 14:36 | 55.49484 | 12.28703 | 3793 ft | 238 kts | 145° |
| 2026-04-26 14:37 | 55.48420 | 12.30947 | 3402 ft | 243 kts | 115° |
| 2026-04-26 14:37 | 55.47895 | 12.33792 | 3100 ft | 241 kts | 104° |
| 2026-04-26 14:37 | 55.47449 | 12.36547 | 3001 ft | 229 kts | 105° |
| 2026-04-26 14:37 | 55.47150 | 12.39246 | 2886 ft | 222 kts | 86° |
| 2026-04-26 14:38 | 55.47508 | 12.41828 | 2755 ft | 217 kts | 58° |
| 2026-04-26 14:38 | 55.48451 | 12.43809 | 2562 ft | 208 kts | 36° |
| 2026-04-26 14:38 | 55.49528 | 12.45450 | 2379 ft | 202 kts | 36° |
| 2026-04-26 14:38 | 55.50240 | 12.46539 | 2302 ft | 198 kts | 36° |
| 2026-04-26 14:39 | 55.51267 | 12.48113 | 2164 ft | 191 kts | 37° |
| 2026-04-26 14:39 | 55.52549 | 12.50084 | 1843 ft | 174 kts | 37° |
| 2026-04-26 14:39 | 55.53136 | 12.50990 | 1697 ft | 159 kts | 36° |
| 2026-04-26 14:39 | 55.53929 | 12.52210 | 1468 ft | 146 kts | 34° |
| 2026-04-26 14:40 | 55.54681 | 12.53364 | 1270 ft | 141 kts | 36° |
| 2026-04-26 14:40 | 55.55414 | 12.54491 | 1060 ft | 139 kts | 36° |
| 2026-04-26 14:40 | 55.56138 | 12.55605 | 863 ft | 138 kts | 36° |
| 2026-04-26 14:40 | 55.56865 | 12.56730 | 660 ft | 139 kts | 35° |
| 2026-04-26 14:41 | 55.57597 | 12.57860 | 481 ft | 140 kts | 37° |
| 2026-04-26 14:41 | 55.58338 | 12.58979 | 292 ft | 141 kts | 35° |
| 2026-04-26 14:41 | 55.59074 | 12.60126 | 101 ft | 142 kts | 36° |
| 2026-04-26 14:41 | 55.59788 | 12.61233 | 20 ft | 124 kts | 37° |
| 2026-04-26 14:42 | 55.60328 | 12.62062 | 17 ft | 79 kts | 42° |
| 2026-04-26 14:42 | 55.60609 | 12.62501 | 20 ft | 29 kts | 41° |
| 2026-04-26 14:42 | 55.60737 | 12.62698 | 20 ft | 26 kts | 38° |
| 2026-04-26 14:42 | 55.60910 | 12.62843 | 19 ft | 28 kts | 14° |
| 2026-04-26 14:43 | 55.61064 | 12.62898 | 17 ft | 17 kts | 12° |
| 2026-04-26 14:43 | 55.61171 | 12.62992 | 18 ft | 16 kts | 39° |
| 2026-04-26 14:43 | 55.61261 | 12.63130 | 17 ft | 19 kts | 40° |
| 2026-04-26 14:43 | 55.61367 | 12.63293 | 17 ft | 22 kts | 41° |
| 2026-04-26 14:44 | 55.61484 | 12.63474 | 17 ft | 23 kts | 41° |
| 2026-04-26 14:44 | 55.61604 | 12.63661 | 17 ft | 23 kts | 41° |
| 2026-04-26 14:44 | 55.61730 | 12.63854 | 17 ft | 24 kts | 41° |
| 2026-04-26 14:44 | 55.61856 | 12.64049 | 19 ft | 22 kts | 39° |
| 2026-04-26 14:45 | 55.61992 | 12.64172 | 17 ft | 22 kts | 25° |
| 2026-04-26 14:45 | 55.62079 | 12.64245 | 18 ft | 20 kts | 26° |
| 2026-04-26 14:45 | 55.62230 | 12.64376 | 15 ft | 18 kts | 36° |
| 2026-04-26 14:45 | 55.62289 | 12.64571 | 17 ft | 17 kts | 66° |
| 2026-04-26 14:46 | 55.62330 | 12.64735 | 17 ft | 14 kts | 66° |
| 2026-04-26 14:46 | 55.62341 | 12.64895 | 19 ft | 13 kts | 117° |
| 2026-04-26 14:46 | 55.62287 | 12.65042 | 17 ft | 15 kts | 123° |
| 2026-04-26 14:46 | 55.62302 | 12.65200 | 17 ft | 14 kts | 30° |
| 2026-04-26 14:47 | 55.62390 | 12.65203 | 17 ft | 12 kts | 358° |
| 2026-04-26 14:47 | 55.62485 | 12.65198 | 17 ft | 14 kts | 358° |
| 2026-04-26 14:47 | 55.62584 | 12.65195 | 17 ft | 14 kts | 359° |
| 2026-04-26 14:47 | 55.62660 | 12.65190 | 17 ft | 9 kts | 357° |
| 2026-04-26 14:48 | 55.62685 | 12.65140 | 17 ft | 5 kts | 290° |
| 2026-04-26 14:48 | 55.62693 | 12.65099 | 18 ft | 3 kts | 289° |
| 2026-04-26 14:48 | 55.62695 | 12.65090 | 17 ft | 1 kts | 289° |
| 2026-04-26 14:48 | 55.62696 | 12.65087 | 17 ft | 0 kts | 289° |